sensor_id;sensor_type;location;lat;lon;timestamp;P1;durP1;ratioP1;P2;durP2;ratioP2
28629;SDS011;15817;42.130;24.762;2024-01-15T00:00:17;100.13;;;40.72;;
28629;SDS011;15817;42.130;24.762;2024-01-15T00:02:43;74.82;;;39.35;;
28629;SDS011;15817;42.130;24.762;2024-01-15T00:05:09;84.57;;;40.15;;
28629;SDS011;15817;42.130;24.762;2024-01-15T00:07:35;79.80;;;40.67;;
28629;SDS011;15817;42.130;24.762;2024-01-15T00:10:01;74.75;;;38.15;;
28629;SDS011;15817;42.130;24.762;2024-01-15T00:12:27;74.72;;;39.13;;
28629;SDS011;15817;42.130;24.762;2024-01-15T00:14:53;75.03;;;39.17;;
28629;SDS011;15817;42.130;24.762;2024-01-15T00:17:19;79.60;;;39.17;;
28629;SDS011;15817;42.130;24.762;2024-01-15T00:19:44;77.28;;;39.60;;
28629;SDS011;15817;42.130;24.762;2024-01-15T00:22:10;74.90;;;38.60;;
28629;SDS011;15817;42.130;24.762;2024-01-15T00:24:36;69.30;;;38.10;;
28629;SDS011;15817;42.130;24.762;2024-01-15T00:27:02;75.18;;;39.40;;
28629;SDS011;15817;42.130;24.762;2024-01-15T00:29:28;75.03;;;38.45;;
28629;SDS011;15817;42.130;24.762;2024-01-15T00:31:54;85.78;;;39.80;;
28629;SDS011;15817;42.130;24.762;2024-01-15T00:34:19;78.47;;;40.00;;
28629;SDS011;15817;42.130;24.762;2024-01-15T00:36:45;75.20;;;39.35;;
28629;SDS011;15817;42.130;24.762;2024-01-15T00:39:11;78.70;;;40.25;;
28629;SDS011;15817;42.130;24.762;2024-01-15T00:41:37;77.82;;;41.35;;
28629;SDS011;15817;42.130;24.762;2024-01-15T00:44:03;79.43;;;39.75;;
28629;SDS011;15817;42.130;24.762;2024-01-15T00:46:29;80.85;;;39.85;;
28629;SDS011;15817;42.130;24.762;2024-01-15T00:48:55;72.78;;;40.45;;
28629;SDS011;15817;42.130;24.762;2024-01-15T00:51:20;80.75;;;40.53;;
28629;SDS011;15817;42.130;24.762;2024-01-15T00:53:46;79.93;;;38.58;;
28629;SDS011;15817;42.130;24.762;2024-01-15T00:56:12;77.88;;;38.10;;
28629;SDS011;15817;42.130;24.762;2024-01-15T00:58:38;70.72;;;38.85;;
28629;SDS011;15817;42.130;24.762;2024-01-15T01:01:04;76.50;;;37.70;;
28629;SDS011;15817;42.130;24.762;2024-01-15T01:03:30;78.00;;;38.85;;
28629;SDS011;15817;42.130;24.762;2024-01-15T01:05:55;77.25;;;37.17;;
28629;SDS011;15817;42.130;24.762;2024-01-15T01:08:21;79.32;;;40.00;;
28629;SDS011;15817;42.130;24.762;2024-01-15T01:10:47;74.85;;;36.85;;
28629;SDS011;15817;42.130;24.762;2024-01-15T01:13:13;74.82;;;39.03;;
28629;SDS011;15817;42.130;24.762;2024-01-15T01:15:38;69.40;;;38.05;;
28629;SDS011;15817;42.130;24.762;2024-01-15T01:18:04;70.07;;;36.65;;
28629;SDS011;15817;42.130;24.762;2024-01-15T01:20:30;76.20;;;38.17;;
28629;SDS011;15817;42.130;24.762;2024-01-15T01:22:56;82.03;;;38.65;;
28629;SDS011;15817;42.130;24.762;2024-01-15T01:25:21;69.35;;;36.63;;
28629;SDS011;15817;42.130;24.762;2024-01-15T01:27:47;70.57;;;36.70;;
28629;SDS011;15817;42.130;24.762;2024-01-15T01:30:13;72.97;;;38.03;;
28629;SDS011;15817;42.130;24.762;2024-01-15T01:32:39;74.05;;;37.15;;
28629;SDS011;15817;42.130;24.762;2024-01-15T01:35:04;75.47;;;37.55;;
28629;SDS011;15817;42.130;24.762;2024-01-15T01:37:30;79.25;;;38.80;;
28629;SDS011;15817;42.130;24.762;2024-01-15T01:39:58;83.28;;;42.58;;
28629;SDS011;15817;42.130;24.762;2024-01-15T01:42:23;81.43;;;41.28;;
28629;SDS011;15817;42.130;24.762;2024-01-15T01:44:49;88.13;;;43.83;;
28629;SDS011;15817;42.130;24.762;2024-01-15T01:47:15;78.30;;;42.65;;
28629;SDS011;15817;42.130;24.762;2024-01-15T01:49:41;90.65;;;43.00;;
28629;SDS011;15817;42.130;24.762;2024-01-15T01:52:07;80.18;;;39.25;;
28629;SDS011;15817;42.130;24.762;2024-01-15T01:54:35;84.50;;;39.83;;
28629;SDS011;15817;42.130;24.762;2024-01-15T01:57:02;79.85;;;39.25;;
28629;SDS011;15817;42.130;24.762;2024-01-15T01:59:30;76.55;;;39.15;;
28629;SDS011;15817;42.130;24.762;2024-01-15T02:01:57;85.15;;;38.70;;
28629;SDS011;15817;42.130;24.762;2024-01-15T02:04:26;82.28;;;36.05;;
28629;SDS011;15817;42.130;24.762;2024-01-15T02:06:55;68.82;;;35.40;;
28629;SDS011;15817;42.130;24.762;2024-01-15T02:09:21;74.63;;;34.70;;
28629;SDS011;15817;42.130;24.762;2024-01-15T02:11:47;65.05;;;33.88;;
28629;SDS011;15817;42.130;24.762;2024-01-15T02:14:13;65.40;;;33.30;;
28629;SDS011;15817;42.130;24.762;2024-01-15T02:16:39;60.80;;;30.63;;
28629;SDS011;15817;42.130;24.762;2024-01-15T02:19:05;57.30;;;29.98;;
28629;SDS011;15817;42.130;24.762;2024-01-15T02:21:31;51.70;;;27.58;;
28629;SDS011;15817;42.130;24.762;2024-01-15T02:23:58;51.58;;;27.65;;
28629;SDS011;15817;42.130;24.762;2024-01-15T02:26:24;59.03;;;29.10;;
28629;SDS011;15817;42.130;24.762;2024-01-15T02:28:51;58.72;;;30.08;;
28629;SDS011;15817;42.130;24.762;2024-01-15T02:31:17;70.30;;;31.35;;
28629;SDS011;15817;42.130;24.762;2024-01-15T02:33:43;69.18;;;31.83;;
28629;SDS011;15817;42.130;24.762;2024-01-15T02:36:11;59.03;;;31.70;;
28629;SDS011;15817;42.130;24.762;2024-01-15T02:38:37;67.47;;;33.95;;
28629;SDS011;15817;42.130;24.762;2024-01-15T02:41:03;75.65;;;35.42;;
28629;SDS011;15817;42.130;24.762;2024-01-15T02:43:29;72.97;;;34.92;;
28629;SDS011;15817;42.130;24.762;2024-01-15T02:45:55;70.20;;;35.13;;
28629;SDS011;15817;42.130;24.762;2024-01-15T02:48:21;65.10;;;35.13;;
28629;SDS011;15817;42.130;24.762;2024-01-15T02:50:46;66.82;;;34.22;;
28629;SDS011;15817;42.130;24.762;2024-01-15T02:53:12;61.90;;;32.95;;
28629;SDS011;15817;42.130;24.762;2024-01-15T02:55:38;66.43;;;33.42;;
28629;SDS011;15817;42.130;24.762;2024-01-15T02:58:04;64.70;;;33.00;;
28629;SDS011;15817;42.130;24.762;2024-01-15T03:00:30;66.82;;;32.33;;
28629;SDS011;15817;42.130;24.762;2024-01-15T03:02:56;65.28;;;31.88;;
28629;SDS011;15817;42.130;24.762;2024-01-15T03:05:22;59.75;;;29.95;;
28629;SDS011;15817;42.130;24.762;2024-01-15T03:07:47;53.83;;;28.23;;
28629;SDS011;15817;42.130;24.762;2024-01-15T03:10:13;52.10;;;25.33;;
28629;SDS011;15817;42.130;24.762;2024-01-15T03:12:39;52.13;;;27.08;;
28629;SDS011;15817;42.130;24.762;2024-01-15T03:15:05;63.08;;;28.17;;
28629;SDS011;15817;42.130;24.762;2024-01-15T03:17:31;57.97;;;27.90;;
28629;SDS011;15817;42.130;24.762;2024-01-15T03:19:56;59.30;;;29.67;;
28629;SDS011;15817;42.130;24.762;2024-01-15T03:22:22;58.05;;;30.00;;
28629;SDS011;15817;42.130;24.762;2024-01-15T03:24:48;49.85;;;27.40;;
28629;SDS011;15817;42.130;24.762;2024-01-15T03:27:14;56.08;;;27.70;;
28629;SDS011;15817;42.130;24.762;2024-01-15T03:29:41;52.35;;;27.10;;
28629;SDS011;15817;42.130;24.762;2024-01-15T03:32:07;50.53;;;26.95;;
28629;SDS011;15817;42.130;24.762;2024-01-15T03:34:33;63.65;;;27.00;;
28629;SDS011;15817;42.130;24.762;2024-01-15T03:36:58;54.65;;;25.95;;
28629;SDS011;15817;42.130;24.762;2024-01-15T03:39:24;49.38;;;25.05;;
28629;SDS011;15817;42.130;24.762;2024-01-15T03:41:50;43.35;;;24.67;;
28629;SDS011;15817;42.130;24.762;2024-01-15T03:44:16;45.72;;;24.42;;
28629;SDS011;15817;42.130;24.762;2024-01-15T03:46:42;45.17;;;23.70;;
28629;SDS011;15817;42.130;24.762;2024-01-15T03:49:08;51.78;;;25.88;;
28629;SDS011;15817;42.130;24.762;2024-01-15T03:51:33;46.95;;;23.65;;
28629;SDS011;15817;42.130;24.762;2024-01-15T03:53:59;47.60;;;25.50;;
28629;SDS011;15817;42.130;24.762;2024-01-15T03:56:25;43.53;;;24.98;;
28629;SDS011;15817;42.130;24.762;2024-01-15T03:58:51;48.53;;;24.42;;
28629;SDS011;15817;42.130;24.762;2024-01-15T04:01:17;40.47;;;22.17;;
28629;SDS011;15817;42.130;24.762;2024-01-15T04:03:42;50.67;;;24.52;;
28629;SDS011;15817;42.130;24.762;2024-01-15T04:06:08;44.45;;;24.05;;
28629;SDS011;15817;42.130;24.762;2024-01-15T04:08:34;38.83;;;21.30;;
28629;SDS011;15817;42.130;24.762;2024-01-15T04:11:00;40.25;;;22.60;;
28629;SDS011;15817;42.130;24.762;2024-01-15T04:13:27;40.63;;;22.90;;
28629;SDS011;15817;42.130;24.762;2024-01-15T04:15:52;41.38;;;23.02;;
28629;SDS011;15817;42.130;24.762;2024-01-15T04:18:18;49.08;;;22.75;;
28629;SDS011;15817;42.130;24.762;2024-01-15T04:20:44;42.10;;;22.90;;
28629;SDS011;15817;42.130;24.762;2024-01-15T04:23:10;43.15;;;22.15;;
28629;SDS011;15817;42.130;24.762;2024-01-15T04:25:36;48.30;;;22.02;;
28629;SDS011;15817;42.130;24.762;2024-01-15T04:28:02;41.88;;;22.67;;
28629;SDS011;15817;42.130;24.762;2024-01-15T04:30:28;40.75;;;21.73;;
28629;SDS011;15817;42.130;24.762;2024-01-15T04:32:53;40.95;;;21.55;;
28629;SDS011;15817;42.130;24.762;2024-01-15T04:35:19;43.50;;;22.20;;
28629;SDS011;15817;42.130;24.762;2024-01-15T04:37:45;42.47;;;22.55;;
28629;SDS011;15817;42.130;24.762;2024-01-15T04:40:11;39.92;;;21.75;;
28629;SDS011;15817;42.130;24.762;2024-01-15T04:42:36;53.35;;;22.67;;
28629;SDS011;15817;42.130;24.762;2024-01-15T04:45:02;53.88;;;23.42;;
28629;SDS011;15817;42.130;24.762;2024-01-15T04:47:28;46.47;;;23.58;;
28629;SDS011;15817;42.130;24.762;2024-01-15T04:49:54;50.85;;;24.75;;
28629;SDS011;15817;42.130;24.762;2024-01-15T04:52:20;51.08;;;25.58;;
28629;SDS011;15817;42.130;24.762;2024-01-15T04:54:46;44.38;;;24.45;;
28629;SDS011;15817;42.130;24.762;2024-01-15T04:57:11;55.45;;;25.38;;
28629;SDS011;15817;42.130;24.762;2024-01-15T04:59:37;52.45;;;25.25;;
28629;SDS011;15817;42.130;24.762;2024-01-15T05:02:03;43.60;;;25.65;;
28629;SDS011;15817;42.130;24.762;2024-01-15T05:04:29;54.63;;;27.67;;
28629;SDS011;15817;42.130;24.762;2024-01-15T05:06:55;50.97;;;28.40;;
28629;SDS011;15817;42.130;24.762;2024-01-15T05:09:21;47.58;;;28.30;;
28629;SDS011;15817;42.130;24.762;2024-01-15T05:11:46;50.67;;;28.67;;
28629;SDS011;15817;42.130;24.762;2024-01-15T05:14:12;51.30;;;28.55;;
28629;SDS011;15817;42.130;24.762;2024-01-15T05:16:38;52.33;;;28.48;;
28629;SDS011;15817;42.130;24.762;2024-01-15T05:19:06;54.10;;;28.80;;
28629;SDS011;15817;42.130;24.762;2024-01-15T05:21:33;49.33;;;29.35;;
28629;SDS011;15817;42.130;24.762;2024-01-15T05:23:59;55.22;;;29.55;;
28629;SDS011;15817;42.130;24.762;2024-01-15T05:26:24;49.05;;;26.88;;
28629;SDS011;15817;42.130;24.762;2024-01-15T05:28:50;64.82;;;27.00;;
28629;SDS011;15817;42.130;24.762;2024-01-15T05:31:16;61.80;;;26.73;;
28629;SDS011;15817;42.130;24.762;2024-01-15T05:33:42;60.42;;;28.40;;
28629;SDS011;15817;42.130;24.762;2024-01-15T05:36:07;55.33;;;26.00;;
28629;SDS011;15817;42.130;24.762;2024-01-15T05:38:33;52.30;;;26.70;;
28629;SDS011;15817;42.130;24.762;2024-01-15T05:40:59;54.83;;;27.77;;
28629;SDS011;15817;42.130;24.762;2024-01-15T05:43:25;49.35;;;26.63;;
28629;SDS011;15817;42.130;24.762;2024-01-15T05:45:50;51.88;;;27.48;;
28629;SDS011;15817;42.130;24.762;2024-01-15T05:48:16;50.58;;;26.85;;
28629;SDS011;15817;42.130;24.762;2024-01-15T05:50:42;60.85;;;27.45;;
28629;SDS011;15817;42.130;24.762;2024-01-15T05:53:08;59.42;;;27.92;;
28629;SDS011;15817;42.130;24.762;2024-01-15T05:55:36;60.45;;;28.13;;
28629;SDS011;15817;42.130;24.762;2024-01-15T05:58:03;64.40;;;30.55;;
28629;SDS011;15817;42.130;24.762;2024-01-15T06:00:29;52.92;;;28.35;;
28629;SDS011;15817;42.130;24.762;2024-01-15T06:02:55;59.22;;;30.05;;
28629;SDS011;15817;42.130;24.762;2024-01-15T06:05:22;66.88;;;28.95;;
28629;SDS011;15817;42.130;24.762;2024-01-15T06:07:47;68.38;;;33.03;;
28629;SDS011;15817;42.130;24.762;2024-01-15T06:10:13;60.22;;;31.42;;
28629;SDS011;15817;42.130;24.762;2024-01-15T06:12:39;66.63;;;31.35;;
28629;SDS011;15817;42.130;24.762;2024-01-15T06:15:05;62.05;;;30.70;;
28629;SDS011;15817;42.130;24.762;2024-01-15T06:17:31;67.03;;;32.47;;
28629;SDS011;15817;42.130;24.762;2024-01-15T06:19:56;66.85;;;31.50;;
28629;SDS011;15817;42.130;24.762;2024-01-15T06:22:22;62.83;;;31.02;;
28629;SDS011;15817;42.130;24.762;2024-01-15T06:24:48;149.23;;;96.40;;
28629;SDS011;15817;42.130;24.762;2024-01-15T06:27:14;75.65;;;35.53;;
28629;SDS011;15817;42.130;24.762;2024-01-15T06:29:44;70.88;;;33.83;;
28629;SDS011;15817;42.130;24.762;2024-01-15T06:32:11;89.18;;;37.22;;
28629;SDS011;15817;42.130;24.762;2024-01-15T06:34:37;70.95;;;36.22;;
28629;SDS011;15817;42.130;24.762;2024-01-15T06:37:03;68.93;;;33.80;;
28629;SDS011;15817;42.130;24.762;2024-01-15T06:39:29;67.65;;;31.60;;
28629;SDS011;15817;42.130;24.762;2024-01-15T06:41:55;58.78;;;27.25;;
28629;SDS011;15817;42.130;24.762;2024-01-15T06:44:21;44.63;;;25.55;;
28629;SDS011;15817;42.130;24.762;2024-01-15T06:46:47;49.53;;;24.23;;
28629;SDS011;15817;42.130;24.762;2024-01-15T06:49:17;53.50;;;26.27;;
28629;SDS011;15817;42.130;24.762;2024-01-15T06:51:43;47.83;;;25.70;;
28629;SDS011;15817;42.130;24.762;2024-01-15T06:54:12;54.20;;;25.75;;
28629;SDS011;15817;42.130;24.762;2024-01-15T06:56:38;59.33;;;26.83;;
28629;SDS011;15817;42.130;24.762;2024-01-15T06:59:04;51.85;;;27.13;;
28629;SDS011;15817;42.130;24.762;2024-01-15T07:01:30;50.88;;;24.75;;
28629;SDS011;15817;42.130;24.762;2024-01-15T07:03:59;51.63;;;25.58;;
28629;SDS011;15817;42.130;24.762;2024-01-15T07:06:32;63.92;;;32.60;;
28629;SDS011;15817;42.130;24.762;2024-01-15T07:09:00;82.35;;;39.88;;
28629;SDS011;15817;42.130;24.762;2024-01-15T07:11:26;53.25;;;27.73;;
28629;SDS011;15817;42.130;24.762;2024-01-15T07:13:52;60.28;;;31.65;;
28629;SDS011;15817;42.130;24.762;2024-01-15T07:16:18;67.78;;;36.90;;
28629;SDS011;15817;42.130;24.762;2024-01-15T07:18:44;78.68;;;41.17;;
28629;SDS011;15817;42.130;24.762;2024-01-15T07:21:10;87.78;;;44.03;;
28629;SDS011;15817;42.130;24.762;2024-01-15T07:23:36;79.60;;;42.83;;
28629;SDS011;15817;42.130;24.762;2024-01-15T07:26:02;92.47;;;43.05;;
28629;SDS011;15817;42.130;24.762;2024-01-15T07:28:30;73.88;;;39.55;;
28629;SDS011;15817;42.130;24.762;2024-01-15T07:30:56;79.50;;;41.05;;
28629;SDS011;15817;42.130;24.762;2024-01-15T07:33:22;82.80;;;43.53;;
28629;SDS011;15817;42.130;24.762;2024-01-15T07:35:48;80.00;;;46.08;;
28629;SDS011;15817;42.130;24.762;2024-01-15T07:38:14;79.57;;;43.60;;
28629;SDS011;15817;42.130;24.762;2024-01-15T07:40:40;62.92;;;36.40;;
28629;SDS011;15817;42.130;24.762;2024-01-15T07:43:06;67.95;;;35.20;;
28629;SDS011;15817;42.130;24.762;2024-01-15T07:45:32;73.05;;;34.00;;
28629;SDS011;15817;42.130;24.762;2024-01-15T07:47:57;52.35;;;28.27;;
28629;SDS011;15817;42.130;24.762;2024-01-15T07:50:23;58.30;;;29.85;;
28629;SDS011;15817;42.130;24.762;2024-01-15T07:52:49;53.85;;;28.70;;
28629;SDS011;15817;42.130;24.762;2024-01-15T07:55:17;72.00;;;32.47;;
28629;SDS011;15817;42.130;24.762;2024-01-15T07:57:43;58.90;;;30.85;;
28629;SDS011;15817;42.130;24.762;2024-01-15T08:00:09;55.78;;;29.70;;
28629;SDS011;15817;42.130;24.762;2024-01-15T08:02:36;54.63;;;29.23;;
28629;SDS011;15817;42.130;24.762;2024-01-15T08:05:01;63.67;;;30.60;;
28629;SDS011;15817;42.130;24.762;2024-01-15T08:07:27;58.05;;;29.80;;
28629;SDS011;15817;42.130;24.762;2024-01-15T08:09:59;58.60;;;29.45;;
28629;SDS011;15817;42.130;24.762;2024-01-15T08:12:28;58.30;;;30.40;;
28629;SDS011;15817;42.130;24.762;2024-01-15T08:14:54;61.58;;;30.20;;
28629;SDS011;15817;42.130;24.762;2024-01-15T08:17:25;59.28;;;30.58;;
28629;SDS011;15817;42.130;24.762;2024-01-15T08:19:54;65.13;;;34.45;;
28629;SDS011;15817;42.130;24.762;2024-01-15T08:22:20;68.72;;;34.88;;
28629;SDS011;15817;42.130;24.762;2024-01-15T08:24:46;68.65;;;36.13;;
28629;SDS011;15817;42.130;24.762;2024-01-15T08:27:12;72.43;;;36.42;;
28629;SDS011;15817;42.130;24.762;2024-01-15T08:29:38;62.00;;;35.55;;
28629;SDS011;15817;42.130;24.762;2024-01-15T08:32:04;58.58;;;31.95;;
28629;SDS011;15817;42.130;24.762;2024-01-15T08:34:30;60.70;;;30.38;;
28629;SDS011;15817;42.130;24.762;2024-01-15T08:36:56;61.78;;;29.52;;
28629;SDS011;15817;42.130;24.762;2024-01-15T08:39:22;48.42;;;28.23;;
28629;SDS011;15817;42.130;24.762;2024-01-15T08:41:48;56.58;;;29.58;;
28629;SDS011;15817;42.130;24.762;2024-01-15T08:44:13;55.03;;;31.08;;
28629;SDS011;15817;42.130;24.762;2024-01-15T08:46:39;60.90;;;30.00;;
28629;SDS011;15817;42.130;24.762;2024-01-15T08:49:05;55.42;;;29.80;;
28629;SDS011;15817;42.130;24.762;2024-01-15T08:51:31;57.85;;;29.77;;
28629;SDS011;15817;42.130;24.762;2024-01-15T08:53:57;54.33;;;28.80;;
28629;SDS011;15817;42.130;24.762;2024-01-15T08:56:23;55.10;;;29.35;;
28629;SDS011;15817;42.130;24.762;2024-01-15T08:58:49;55.22;;;29.73;;
28629;SDS011;15817;42.130;24.762;2024-01-15T09:01:15;55.22;;;28.90;;
28629;SDS011;15817;42.130;24.762;2024-01-15T09:03:41;58.30;;;28.30;;
28629;SDS011;15817;42.130;24.762;2024-01-15T09:06:08;51.22;;;30.02;;
28629;SDS011;15817;42.130;24.762;2024-01-15T09:08:35;48.83;;;28.13;;
28629;SDS011;15817;42.130;24.762;2024-01-15T09:11:01;50.28;;;30.63;;
28629;SDS011;15817;42.130;24.762;2024-01-15T09:13:29;61.70;;;30.48;;
28629;SDS011;15817;42.130;24.762;2024-01-15T09:15:55;55.03;;;29.25;;
28629;SDS011;15817;42.130;24.762;2024-01-15T09:18:20;57.03;;;28.83;;
28629;SDS011;15817;42.130;24.762;2024-01-15T09:20:46;57.60;;;29.67;;
28629;SDS011;15817;42.130;24.762;2024-01-15T09:23:25;60.03;;;30.27;;
28629;SDS011;15817;42.130;24.762;2024-01-15T09:25:54;57.35;;;31.27;;
28629;SDS011;15817;42.130;24.762;2024-01-15T09:28:23;60.30;;;31.75;;
28629;SDS011;15817;42.130;24.762;2024-01-15T09:30:51;56.67;;;29.83;;
28629;SDS011;15817;42.130;24.762;2024-01-15T09:33:17;55.25;;;28.48;;
28629;SDS011;15817;42.130;24.762;2024-01-15T09:35:43;53.45;;;27.70;;
28629;SDS011;15817;42.130;24.762;2024-01-15T09:38:11;54.22;;;29.80;;
28629;SDS011;15817;42.130;24.762;2024-01-15T09:40:38;55.08;;;28.60;;
28629;SDS011;15817;42.130;24.762;2024-01-15T09:43:04;54.88;;;28.15;;
28629;SDS011;15817;42.130;24.762;2024-01-15T09:45:30;46.58;;;27.83;;
28629;SDS011;15817;42.130;24.762;2024-01-15T09:47:56;50.78;;;29.75;;
28629;SDS011;15817;42.130;24.762;2024-01-15T09:50:24;54.28;;;28.08;;
28629;SDS011;15817;42.130;24.762;2024-01-15T09:52:51;56.42;;;27.80;;
28629;SDS011;15817;42.130;24.762;2024-01-15T09:55:18;47.45;;;25.52;;
28629;SDS011;15817;42.130;24.762;2024-01-15T09:57:44;56.13;;;26.92;;
28629;SDS011;15817;42.130;24.762;2024-01-15T10:00:11;51.45;;;26.73;;
28629;SDS011;15817;42.130;24.762;2024-01-15T10:02:38;56.75;;;27.83;;
28629;SDS011;15817;42.130;24.762;2024-01-15T10:05:04;57.53;;;26.65;;
28629;SDS011;15817;42.130;24.762;2024-01-15T10:07:34;49.35;;;27.02;;
28629;SDS011;15817;42.130;24.762;2024-01-15T10:10:01;48.38;;;24.33;;
28629;SDS011;15817;42.130;24.762;2024-01-15T10:12:28;45.22;;;22.60;;
28629;SDS011;15817;42.130;24.762;2024-01-15T10:14:55;46.88;;;24.17;;
28629;SDS011;15817;42.130;24.762;2024-01-15T10:17:21;59.70;;;25.88;;
28629;SDS011;15817;42.130;24.762;2024-01-15T10:19:47;44.55;;;23.48;;
28629;SDS011;15817;42.130;24.762;2024-01-15T10:22:14;41.30;;;24.10;;
28629;SDS011;15817;42.130;24.762;2024-01-15T10:24:41;40.47;;;22.55;;
28629;SDS011;15817;42.130;24.762;2024-01-15T10:27:10;39.30;;;22.50;;
28629;SDS011;15817;42.130;24.762;2024-01-15T10:29:40;47.97;;;22.85;;
28629;SDS011;15817;42.130;24.762;2024-01-15T10:32:07;51.47;;;22.95;;
28629;SDS011;15817;42.130;24.762;2024-01-15T10:34:41;39.00;;;21.50;;
28629;SDS011;15817;42.130;24.762;2024-01-15T10:37:10;38.80;;;21.80;;
28629;SDS011;15817;42.130;24.762;2024-01-15T10:39:39;46.30;;;24.83;;
28629;SDS011;15817;42.130;24.762;2024-01-15T10:42:05;39.47;;;23.13;;
28629;SDS011;15817;42.130;24.762;2024-01-15T10:44:31;47.00;;;26.20;;
28629;SDS011;15817;42.130;24.762;2024-01-15T10:46:57;48.35;;;24.20;;
28629;SDS011;15817;42.130;24.762;2024-01-15T10:49:28;47.30;;;24.30;;
28629;SDS011;15817;42.130;24.762;2024-01-15T10:51:55;52.83;;;25.98;;
28629;SDS011;15817;42.130;24.762;2024-01-15T10:54:22;43.60;;;24.63;;
28629;SDS011;15817;42.130;24.762;2024-01-15T10:56:51;41.25;;;23.52;;
28629;SDS011;15817;42.130;24.762;2024-01-15T10:59:20;45.35;;;23.63;;
28629;SDS011;15817;42.130;24.762;2024-01-15T11:01:51;41.15;;;24.27;;
28629;SDS011;15817;42.130;24.762;2024-01-15T11:04:23;42.78;;;23.20;;
28629;SDS011;15817;42.130;24.762;2024-01-15T11:06:52;40.03;;;23.90;;
28629;SDS011;15817;42.130;24.762;2024-01-15T11:09:19;38.05;;;22.42;;
28629;SDS011;15817;42.130;24.762;2024-01-15T11:11:45;36.45;;;22.13;;
28629;SDS011;15817;42.130;24.762;2024-01-15T11:17:04;31.88;;;19.92;;
28629;SDS011;15817;42.130;24.762;2024-01-15T11:19:37;33.40;;;19.00;;
28629;SDS011;15817;42.130;24.762;2024-01-15T11:22:08;34.88;;;19.70;;
28629;SDS011;15817;42.130;24.762;2024-01-15T11:24:38;40.13;;;23.70;;
28629;SDS011;15817;42.130;24.762;2024-01-15T11:27:10;32.45;;;20.63;;
28629;SDS011;15817;42.130;24.762;2024-01-15T11:29:38;38.05;;;22.13;;
28629;SDS011;15817;42.130;24.762;2024-01-15T11:32:09;40.67;;;21.35;;
28629;SDS011;15817;42.130;24.762;2024-01-15T11:37:25;37.45;;;20.95;;
28629;SDS011;15817;42.130;24.762;2024-01-15T11:39:56;37.83;;;21.58;;
28629;SDS011;15817;42.130;24.762;2024-01-15T11:42:42;33.45;;;19.63;;
28629;SDS011;15817;42.130;24.762;2024-01-15T11:45:08;35.30;;;19.77;;
28629;SDS011;15817;42.130;24.762;2024-01-15T11:47:42;35.45;;;19.48;;
28629;SDS011;15817;42.130;24.762;2024-01-15T11:50:21;34.25;;;19.48;;
28629;SDS011;15817;42.130;24.762;2024-01-15T11:52:53;30.17;;;19.15;;
28629;SDS011;15817;42.130;24.762;2024-01-15T11:55:51;33.47;;;18.88;;
28629;SDS011;15817;42.130;24.762;2024-01-15T11:58:18;31.85;;;18.65;;
28629;SDS011;15817;42.130;24.762;2024-01-15T12:00:50;34.38;;;18.75;;
28629;SDS011;15817;42.130;24.762;2024-01-15T12:03:24;34.50;;;19.20;;
28629;SDS011;15817;42.130;24.762;2024-01-15T12:05:53;36.13;;;20.38;;
28629;SDS011;15817;42.130;24.762;2024-01-15T12:08:22;30.00;;;18.80;;
28629;SDS011;15817;42.130;24.762;2024-01-15T12:10:49;31.77;;;20.73;;
28629;SDS011;15817;42.130;24.762;2024-01-15T12:13:15;37.30;;;20.52;;
28629;SDS011;15817;42.130;24.762;2024-01-15T12:15:43;35.22;;;21.58;;
28629;SDS011;15817;42.130;24.762;2024-01-15T12:18:14;35.78;;;21.70;;
28629;SDS011;15817;42.130;24.762;2024-01-15T12:20:42;37.10;;;21.88;;
28629;SDS011;15817;42.130;24.762;2024-01-15T12:23:09;35.60;;;21.15;;
28629;SDS011;15817;42.130;24.762;2024-01-15T12:25:38;37.55;;;20.27;;
28629;SDS011;15817;42.130;24.762;2024-01-15T12:28:05;32.58;;;20.20;;
28629;SDS011;15817;42.130;24.762;2024-01-15T12:30:34;40.08;;;20.63;;
28629;SDS011;15817;42.130;24.762;2024-01-15T12:33:04;37.67;;;21.85;;
28629;SDS011;15817;42.130;24.762;2024-01-15T12:35:36;43.67;;;26.27;;
28629;SDS011;15817;42.130;24.762;2024-01-15T12:38:10;54.40;;;29.02;;
28629;SDS011;15817;42.130;24.762;2024-01-15T12:40:39;53.80;;;30.55;;
28629;SDS011;15817;42.130;24.762;2024-01-15T12:43:11;54.70;;;30.95;;
28629;SDS011;15817;42.130;24.762;2024-01-15T12:45:37;50.33;;;31.45;;
28629;SDS011;15817;42.130;24.762;2024-01-15T12:48:03;52.65;;;32.55;;
28629;SDS011;15817;42.130;24.762;2024-01-15T12:50:30;52.85;;;31.88;;
28629;SDS011;15817;42.130;24.762;2024-01-15T12:53:02;53.00;;;30.38;;
28629;SDS011;15817;42.130;24.762;2024-01-15T12:55:31;54.80;;;30.60;;
28629;SDS011;15817;42.130;24.762;2024-01-15T13:00:59;62.58;;;32.30;;
28629;SDS011;15817;42.130;24.762;2024-01-15T13:03:27;56.35;;;35.50;;
28629;SDS011;15817;42.130;24.762;2024-01-15T13:05:55;55.47;;;33.03;;
28629;SDS011;15817;42.130;24.762;2024-01-15T13:08:21;56.05;;;32.17;;
28629;SDS011;15817;42.130;24.762;2024-01-15T13:10:52;52.33;;;32.28;;
28629;SDS011;15817;42.130;24.762;2024-01-15T13:13:24;50.63;;;30.15;;
28629;SDS011;15817;42.130;24.762;2024-01-15T13:15:49;46.65;;;28.45;;
28629;SDS011;15817;42.130;24.762;2024-01-15T13:18:15;51.70;;;31.08;;
28629;SDS011;15817;42.130;24.762;2024-01-15T13:20:46;60.13;;;31.58;;
28629;SDS011;15817;42.130;24.762;2024-01-15T13:23:12;55.15;;;31.17;;
28629;SDS011;15817;42.130;24.762;2024-01-15T13:25:38;50.15;;;29.80;;
28629;SDS011;15817;42.130;24.762;2024-01-15T13:28:18;51.28;;;29.77;;
28629;SDS011;15817;42.130;24.762;2024-01-15T13:30:44;46.85;;;29.02;;
28629;SDS011;15817;42.130;24.762;2024-01-15T13:33:10;49.45;;;29.08;;
28629;SDS011;15817;42.130;24.762;2024-01-15T13:35:36;60.95;;;30.38;;
28629;SDS011;15817;42.130;24.762;2024-01-15T13:38:01;50.72;;;30.27;;
28629;SDS011;15817;42.130;24.762;2024-01-15T13:40:28;50.20;;;31.73;;
28629;SDS011;15817;42.130;24.762;2024-01-15T13:42:56;50.70;;;31.35;;
28629;SDS011;15817;42.130;24.762;2024-01-15T13:45:22;48.17;;;30.27;;
28629;SDS011;15817;42.130;24.762;2024-01-15T13:47:51;48.83;;;30.33;;
28629;SDS011;15817;42.130;24.762;2024-01-15T13:50:17;56.25;;;30.52;;
28629;SDS011;15817;42.130;24.762;2024-01-15T13:52:48;46.53;;;28.58;;
28629;SDS011;15817;42.130;24.762;2024-01-15T13:55:17;44.88;;;27.88;;
28629;SDS011;15817;42.130;24.762;2024-01-15T13:57:43;48.33;;;28.10;;
28629;SDS011;15817;42.130;24.762;2024-01-15T14:00:20;46.58;;;28.20;;
28629;SDS011;15817;42.130;24.762;2024-01-15T14:02:53;49.20;;;27.00;;
28629;SDS011;15817;42.130;24.762;2024-01-15T14:05:19;49.85;;;27.60;;
28629;SDS011;15817;42.130;24.762;2024-01-15T14:07:45;49.58;;;29.33;;
28629;SDS011;15817;42.130;24.762;2024-01-15T14:10:16;44.63;;;28.13;;
28629;SDS011;15817;42.130;24.762;2024-01-15T14:12:47;59.28;;;31.38;;
28629;SDS011;15817;42.130;24.762;2024-01-15T14:15:15;58.88;;;32.65;;